Time;durP1;ratioP1;P1;durP2;ratioP2;P2;SDS_P1;SDS_P2;PMS_P1;PMS_P2;Temp;Humidity;BMP_temperature;BMP_pressure;BME280_temperature;BME280_humidity;BME280_pressure;Samples;Min_cycle;Max_cycle;Signal;HPM_P1;HPM_P2
2022/04/20 00:01:25;;;;;;;5.57;3.07;;;;;;;4.58;78.25;95947.19;5030149;28;20029;-77
2022/04/20 00:03:51;;;;;;;5.63;2.97;;;;;;;4.77;77.51;95949.91;5052549;28;20063;-77
2022/04/20 00:06:17;;;;;;;6.70;3.27;;;;;;;4.63;78.28;95947.66;5035904;28;20041;-78
2022/04/20 00:08:42;;;;;;;5.33;3.13;;;;;;;4.67;79.00;95949.03;5039124;28;20061;-78
2022/04/20 00:11:08;;;;;;;6.80;3.13;;;;;;;4.63;79.10;95945.03;5052414;28;20057;-77
2022/04/20 00:13:37;;;;;;;5.70;3.07;;;;;;;4.66;78.90;95943.00;5051372;28;20102;-78
2022/04/20 00:16:03;;;;;;;7.60;3.47;;;;;;;4.58;79.21;95949.78;5035891;28;20029;-77
2022/04/20 00:18:28;;;;;;;8.77;3.10;;;;;;;4.65;79.52;95945.72;5053959;28;20501;-77
2022/04/20 00:20:54;;;;;;;8.87;3.30;;;;;;;4.54;80.33;95943.19;5058223;28;20036;-77
2022/04/20 00:23:20;;;;;;;9.10;3.40;;;;;;;4.56;80.73;95946.47;5050869;28;20083;-77
2022/04/20 00:25:45;;;;;;;7.77;3.50;;;;;;;4.55;81.03;95944.84;5032506;28;20067;-77
2022/04/20 00:28:11;;;;;;;8.50;3.73;;;;;;;4.53;81.99;95951.94;5033458;28;20044;-77
2022/04/20 00:30:37;;;;;;;7.33;3.30;;;;;;;4.49;82.59;95944.41;5029312;28;20083;-77
2022/04/20 00:33:03;;;;;;;6.57;3.23;;;;;;;4.51;82.77;95940.84;5058712;28;20455;-77
2022/04/20 00:35:29;;;;;;;6.03;3.40;;;;;;;4.53;82.58;95944.13;5038020;28;20040;-77
2022/04/20 00:37:55;;;;;;;5.77;3.43;;;;;;;4.58;81.86;95942.81;5039212;28;20017;-77
2022/04/20 00:40:21;;;;;;;8.17;3.40;;;;;;;4.49;83.12;95943.56;5019845;28;20470;-78
2022/04/20 00:42:47;;;;;;;5.93;3.10;;;;;;;4.41;83.89;95943.41;5039250;28;20175;-77
2022/04/20 00:45:13;;;;;;;6.93;3.27;;;;;;;4.39;84.13;95946.16;5055411;28;20573;-77
2022/04/20 00:47:45;;;;;;;15.13;3.67;;;;;;;4.38;83.89;95933.25;5028321;28;20471;-77
2022/04/20 00:50:16;;;;;;;8.47;4.10;;;;;;;4.22;85.32;95946.69;5029616;28;20492;-79
2022/04/20 00:52:42;;;;;;;5.93;3.17;;;;;;;4.28;85.03;95942.78;5041950;28;20866;-77
2022/04/20 00:55:11;;;;;;;4.70;2.67;;;;;;;4.29;85.06;95939.22;5020690;28;20487;-77
2022/04/20 00:57:37;;;;;;;6.00;3.40;;;;;;;4.22;84.98;95938.88;5024610;28;20463;-77
2022/04/20 01:00:05;;;;;;;5.07;3.33;;;;;;;4.20;85.63;95940.81;5020848;28;20484;-78
2022/04/20 01:02:39;;;;;;;7.57;3.50;;;;;;;4.15;86.15;95935.16;5020236;28;20463;-78
2022/04/20 01:05:06;;;;;;;6.77;3.63;;;;;;;4.11;86.61;95941.56;5030818;28;20474;-77
2022/04/20 01:07:42;;;;;;;7.13;3.33;;;;;;;4.21;86.28;95937.25;5021280;28;20451;-78
2022/04/20 01:10:43;;;;;;;8.37;3.43;;;;;;;4.14;87.23;95936.13;4992144;28;20454;-78
2022/04/20 01:13:28;;;;;;;5.43;3.07;;;;;;;4.07;87.56;95937.56;5043120;28;20570;-77
2022/04/20 01:16:12;;;;;;;8.47;4.20;;;;;;;3.87;88.22;95936.59;5056654;28;20432;-78
2022/04/20 01:18:50;;;;;;;6.97;3.10;;;;;;;3.75;88.57;95936.63;5043062;28;20564;-78
2022/04/20 01:21:36;;;;;;;7.20;3.40;;;;;;;3.65;89.04;95940.09;5036765;28;20454;-77
2022/04/20 01:24:22;;;;;;;6.97;3.30;;;;;;;3.78;88.49;95933.78;5035820;28;20798;-77
2022/04/20 01:27:14;;;;;;;5.57;2.90;;;;;;;3.52;89.08;95940.25;5038472;28;20459;-79
2022/04/20 01:30:07;;;;;;;9.57;3.47;;;;;;;3.40;89.14;95926.50;5030285;28;20459;-78
2022/04/20 01:32:43;;;;;;;7.60;3.57;;;;;;;3.48;90.11;95931.06;5031527;28;20509;-77
2022/04/20 01:35:12;;;;;;;5.33;3.07;;;;;;;3.33;89.89;95929.72;5040424;28;21374;-77
2022/04/20 01:37:39;;;;;;;6.83;2.80;;;;;;;3.23;90.54;95930.44;5056294;28;20455;-77
2022/04/20 01:40:05;;;;;;;6.57;3.00;;;;;;;3.44;89.34;95925.28;5041891;28;20464;-78
2022/04/20 01:42:32;;;;;;;8.07;3.43;;;;;;;3.51;88.99;95923.84;5037328;28;20044;-77
2022/04/20 01:45:01;;;;;;;6.47;3.60;;;;;;;3.44;89.57;95922.69;5038004;28;20470;-78
2022/04/20 01:48:02;;;;;;;6.20;3.03;;;;;;;3.54;88.74;95926.19;4999635;28;21029;-77
2022/04/20 01:54:10;;;;;;;6.33;3.60;;;;;;;3.45;89.33;95926.94;4984107;28;20484;-78
2022/04/20 01:56:59;;;;;;;7.63;2.90;;;;;;;3.49;89.04;95920.56;5030131;28;20476;-77
2022/04/20 01:59:53;;;;;;;6.83;3.67;;;;;;;3.27;90.90;95923.22;5004095;28;20466;-77
2022/04/20 02:02:40;;;;;;;5.97;3.33;;;;;;;3.33;90.92;95922.72;5051226;28;20467;-77
2022/04/20 02:05:26;;;;;;;6.30;3.20;;;;;;;3.39;90.75;95916.22;5031875;28;20454;-78
2022/04/20 02:08:10;;;;;;;5.63;3.35;;;;;;;3.16;91.38;95916.28;5036585;28;21456;-78
2022/04/20 02:10:55;;;;;;;5.80;2.87;;;;;;;3.17;91.14;95919.69;5054440;28;20043;-77
2022/04/20 02:13:21;;;;;;;7.07;3.50;;;;;;;3.26;91.91;95925.00;5037555;28;20483;-79
2022/04/20 02:15:48;;;;;;;5.83;3.07;;;;;;;3.24;90.45;95921.69;5024409;28;20021;-78
2022/04/20 02:18:33;;;;;;;6.03;3.20;;;;;;;3.21;90.81;95915.91;5056254;28;20431;-77
2022/04/20 02:21:20;;;;;;;6.50;3.00;;;;;;;3.22;90.31;95917.53;5034829;28;20557;-77
2022/04/20 02:23:46;;;;;;;6.73;3.30;;;;;;;3.10;91.00;95915.94;5037279;28;20495;-78
2022/04/20 02:26:11;;;;;;;5.17;3.20;;;;;;;3.00;93.05;95914.06;5022031;28;20083;-78
2022/04/20 02:28:37;;;;;;;8.63;3.67;;;;;;;2.96;92.76;95915.25;5037416;28;20557;-77
2022/04/20 02:31:03;;;;;;;5.63;3.00;;;;;;;3.05;92.60;95918.88;5046274;28;20081;-79
2022/04/20 02:33:30;;;;;;;6.17;3.27;;;;;;;3.03;92.86;95916.41;5054085;28;20033;-79
2022/04/20 02:35:57;;;;;;;8.77;3.93;;;;;;;3.10;92.33;95910.75;5036848;28;20486;-77
2022/04/20 02:38:24;;;;;;;7.67;3.60;;;;;;;2.92;92.38;95911.25;5035713;28;20036;-77
2022/04/20 02:40:51;;;;;;;7.03;3.53;;;;;;;2.96;92.92;95912.66;5039960;28;20554;-77
2022/04/20 02:43:17;;;;;;;4.93;3.50;;;;;;;2.84;93.53;95924.00;5035911;28;20041;-77
2022/04/20 02:45:43;;;;;;;7.03;3.30;;;;;;;2.90;93.60;95917.50;5032380;28;20471;-80
2022/04/20 02:48:09;;;;;;;6.90;3.83;;;;;;;2.88;93.36;95924.56;5023153;28;20816;-77
2022/04/20 02:50:35;;;;;;;7.10;3.10;;;;;;;2.64;95.64;95928.13;5056202;28;20029;-77
2022/04/20 02:53:01;;;;;;;6.10;3.60;;;;;;;2.55;96.75;95929.69;5019241;28;20460;-76
2022/04/20 02:55:28;;;;;;;6.63;3.60;;;;;;;2.49;98.13;95935.34;5033087;28;20475;-77
2022/04/20 02:57:54;;;;;;;6.07;3.50;;;;;;;2.24;99.92;95938.94;5023439;28;20455;-77
2022/04/20 03:00:22;;;;;;;17.60;11.27;;;;;;;2.10;100.00;95939.97;5022268;28;20108;-77
2022/04/20 03:02:59;;;;;;;8.63;5.50;;;;;;;2.06;100.00;95935.16;5015606;28;20517;-77
2022/04/20 03:05:25;;;;;;;7.13;4.17;;;;;;;2.02;100.00;95939.72;5015328;28;20488;-78
2022/04/20 03:07:52;;;;;;;7.60;3.50;;;;;;;1.90;100.00;95940.63;5053474;28;20029;-77
2022/04/20 03:10:18;;;;;;;7.60;3.67;;;;;;;1.90;100.00;95943.22;5016682;28;20558;-77
2022/04/20 03:12:45;;;;;;;6.87;3.90;;;;;;;1.69;100.00;95948.22;5037394;28;20529;-77
2022/04/20 03:15:11;;;;;;;7.67;4.77;;;;;;;1.67;100.00;95946.69;5016823;28;20475;-78
2022/04/20 03:17:37;;;;;;;9.07;5.57;;;;;;;1.54;100.00;95941.56;5036806;28;20059;-77
2022/04/20 03:20:06;;;;;;;10.27;5.50;;;;;;;1.58;100.00;95930.88;5030834;28;20666;-77
2022/04/20 03:22:32;;;;;;;11.53;7.07;;;;;;;1.58;100.00;95928.28;5031214;28;20825;-78
2022/04/20 03:24:58;;;;;;;8.13;5.30;;;;;;;1.51;100.00;95937.44;5021990;28;20463;-77
2022/04/20 03:27:44;;;;;;;6.47;4.10;;;;;;;1.36;100.00;95943.72;5022726;28;20044;-78
2022/04/20 03:30:14;;;;;;;19.00;4.63;;;;;;;1.48;100.00;95939.44;5015705;28;20501;-77
2022/04/20 03:32:41;;;;;;;8.83;3.93;;;;;;;1.33;100.00;95938.75;5014605;28;20130;-77
2022/04/20 03:35:07;;;;;;;9.17;6.00;;;;;;;1.29;100.00;95938.13;5011403;28;20464;-77
2022/04/20 03:37:33;;;;;;;14.37;9.00;;;;;;;1.25;100.00;95941.06;5017315;28;20538;-77
2022/04/20 03:39:59;;;;;;;6.17;3.93;;;;;;;1.25;100.00;95946.25;5025379;28;22406;-77
2022/04/20 03:42:26;;;;;;;6.97;4.47;;;;;;;1.15;100.00;95940.91;5029539;28;20033;-76
2022/04/20 03:44:52;;;;;;;6.40;3.70;;;;;;;1.08;100.00;95935.31;5032424;28;20447;-78
2022/04/20 03:47:18;;;;;;;6.60;4.33;;;;;;;1.10;100.00;95938.63;5049607;28;20505;-77
2022/04/20 03:49:43;;;;;;;8.10;3.87;;;;;;;1.17;100.00;95942.44;5048962;28;20528;-77
2022/04/20 03:52:09;;;;;;;6.97;4.10;;;;;;;1.34;100.00;95945.56;5014593;28;20037;-77
2022/04/20 03:54:37;;;;;;;6.80;3.53;;;;;;;1.32;100.00;95943.09;5029338;28;20110;-77
2022/04/20 03:57:04;;;;;;;8.33;3.80;;;;;;;1.18;100.00;95946.69;5016118;28;20535;-77
2022/04/20 03:59:42;;;;;;;7.67;4.13;;;;;;;1.23;100.00;95951.53;5013630;28;20480;-78
2022/04/20 04:02:09;;;;;;;7.77;4.17;;;;;;;1.18;100.00;95951.88;5015704;28;20479;-77
2022/04/20 04:04:43;;;;;;;7.60;3.30;;;;;;;1.10;100.00;95959.31;5030721;28;20475;-77
2022/04/20 04:07:17;;;;;;;5.87;3.63;;;;;;;1.11;100.00;95955.81;5035636;28;20522;-77
2022/04/20 04:09:43;;;;;;;6.10;4.23;;;;;;;1.09;100.00;95952.50;5014832;28;20521;-78
2022/04/20 04:12:10;;;;;;;7.33;4.67;;;;;;;1.09;100.00;95952.50;5031385;28;20033;-78
2022/04/20 04:14:44;;;;;;;8.93;5.60;;;;;;;1.06;100.00;95957.06;5014361;28;20477;-76
2022/04/20 04:17:10;;;;;;;14.83;9.23;;;;;;;0.99;100.00;95966.22;5033330;28;20459;-77
2022/04/20 04:19:38;;;;;;;8.23;5.00;;;;;;;0.87;100.00;95949.75;5032717;28;20473;-77
2022/04/20 04:22:05;;;;;;;7.73;4.57;;;;;;;0.91;100.00;95956.41;5017011;28;20487;-78
2022/04/20 04:24:34;;;;;;;8.20;4.77;;;;;;;0.81;100.00;95971.75;5017872;28;20523;-77
2022/04/20 04:27:04;;;;;;;6.47;4.07;;;;;;;0.84;100.00;95968.09;5011989;28;20472;-76
2022/04/20 04:29:31;;;;;;;8.17;4.83;;;;;;;0.79;100.00;95954.66;5035948;28;20451;-77
2022/04/20 04:31:59;;;;;;;9.43;4.63;;;;;;;0.91;100.00;95961.56;5012814;28;20475;-78
2022/04/20 04:34:26;;;;;;;7.93;4.03;;;;;;;0.94;100.00;95964.78;5034977;28;20467;-77
2022/04/20 04:36:53;;;;;;;6.87;4.03;;;;;;;0.94;100.00;95966.53;5034925;28;20461;-78
2022/04/20 04:39:21;;;;;;;8.20;4.00;;;;;;;0.90;100.00;95965.06;5018941;28;20483;-77
2022/04/20 04:41:50;;;;;;;7.30;4.13;;;;;;;0.84;100.00;95962.91;5033577;28;20471;-77
2022/04/20 04:44:17;;;;;;;6.23;4.27;;;;;;;1.07;100.00;95954.38;5032228;28;20459;-76
2022/04/20 04:49:31;;;;;;;9.97;4.50;;;;;;;1.11;100.00;95952.41;5032518;28;21000;-77
2022/04/20 04:51:59;;;;;;;6.50;4.23;;;;;;;1.11;100.00;95960.19;5012215;28;20542;-76
2022/04/20 04:54:25;;;;;;;8.83;4.90;;;;;;;1.07;100.00;95956.94;5019308;28;20524;-77
2022/04/20 04:56:54;;;;;;;9.73;4.47;;;;;;;1.24;100.00;95955.78;5050540;28;20448;-76
2022/04/20 04:59:20;;;;;;;8.67;4.80;;;;;;;1.28;100.00;95959.00;5019414;28;20482;-77
2022/04/20 05:01:49;;;;;;;7.93;4.40;;;;;;;1.35;100.00;95958.44;5016563;28;21001;-77
2022/04/20 05:04:19;;;;;;;7.13;4.70;;;;;;;1.60;100.00;95957.47;5033249;28;21105;-76
2022/04/20 05:06:47;;;;;;;10.13;4.77;;;;;;;1.69;100.00;95955.19;5030939;28;20465;-76
2022/04/20 05:09:48;;;;;;;8.00;4.77;;;;;;;1.77;100.00;95963.22;5000215;28;20460;-76
2022/04/20 05:12:14;;;;;;;11.13;5.17;;;;;;;2.02;100.00;95968.25;5018645;28;20472;-76
2022/04/20 05:14:41;;;;;;;7.27;4.33;;;;;;;2.16;100.00;95963.81;5012072;28;20472;-76
2022/04/20 05:17:07;;;;;;;6.93;4.33;;;;;;;2.35;100.00;95956.31;5031610;28;20501;-76
2022/04/20 05:19:34;;;;;;;8.77;5.53;;;;;;;2.44;100.00;95950.41;5025428;28;20027;-76
2022/04/20 05:22:07;;;;;;;7.95;5.20;;;;;;;2.58;100.00;95949.34;5012422;28;21119;-76
2022/04/20 05:24:40;;;;;;;9.60;5.33;;;;;;;2.99;99.56;95948.78;5013251;28;20383;-76
2022/04/20 05:27:10;;;;;;;10.43;5.38;;;;;;;2.92;99.44;95950.22;5014012;28;20463;-76
2022/04/20 05:30:10;;;;;;;11.50;5.27;;;;;;;3.21;97.68;95952.28;5026833;28;20513;-77
2022/04/20 05:32:36;;;;;;;9.70;5.00;;;;;;;3.35;96.69;95949.41;5029655;28;21223;-76
2022/04/20 05:35:07;;;;;;;12.13;6.40;;;;;;;3.30;97.03;95951.56;5027595;28;20571;-77
2022/04/20 05:43:03;;;;;;;10.83;6.50;;;;;;;3.44;95.50;95950.47;5046344;28;20490;-77
2022/04/20 05:45:29;;;;;;;10.40;5.83;;;;;;;3.59;95.13;95945.81;5013961;28;21247;-77
2022/04/20 05:48:18;;;;;;;13.53;6.70;;;;;;;3.70;93.57;95940.56;5027013;28;20040;-77
2022/04/20 05:50:44;;;;;;;12.03;6.27;;;;;;;4.08;91.66;95942.63;5031236;28;20824;-76
2022/04/20 05:53:13;;;;;;;10.83;6.57;;;;;;;4.21;90.35;95942.47;5023059;28;20475;-76
2022/04/20 05:55:39;;;;;;;10.73;6.47;;;;;;;4.21;91.19;95945.88;5017733;28;20551;-76
2022/04/20 05:58:06;;;;;;;9.87;6.33;;;;;;;4.39;90.11;95948.75;5031321;28;21023;-76
2022/04/20 06:00:32;;;;;;;17.93;10.10;;;;;;;4.33;91.18;95949.25;5019087;28;20024;-77
2022/04/20 06:03:16;;;;;;;11.90;7.27;;;;;;;4.66;89.66;95955.16;5048768;28;20550;-76
2022/04/20 06:05:42;;;;;;;8.17;4.83;;;;;;;4.66;89.25;95957.78;5014157;28;20471;-76
2022/04/20 06:08:26;;;;;;;8.88;5.95;;;;;;;5.09;86.79;95949.72;5025958;28;21042;-77
2022/04/20 06:11:02;;;;;;;10.13;6.13;;;;;;;4.84;86.42;95950.19;5031945;28;20044;-77
2022/04/20 06:13:29;;;;;;;8.63;6.63;;;;;;;5.43;85.15;95944.19;5014402;28;20484;-77
2022/04/20 06:16:06;;;;;;;9.10;5.37;;;;;;;5.39;83.55;95946.25;5017566;28;20471;-76
2022/04/20 06:18:58;;;;;;;12.85;6.72;;;;;;;5.52;84.67;95947.78;5035630;28;20467;-77
2022/04/20 06:21:33;;;;;;;26.13;11.30;;;;;;;5.78;83.69;95948.91;5015595;28;20044;-78
2022/04/20 06:24:09;;;;;;;10.40;6.00;;;;;;;5.96;81.26;95948.25;5030836;28;20471;-76
2022/04/20 06:27:02;;;;;;;8.60;5.50;;;;;;;5.71;82.40;95941.78;5012180;28;20459;-77
2022/04/20 06:29:50;;;;;;;8.00;5.07;;;;;;;6.25;80.10;95938.63;5049395;28;21218;-77
2022/04/20 06:32:27;;;;;;;7.50;5.50;;;;;;;6.68;78.42;95934.66;5030674;28;20840;-77
2022/04/20 06:35:11;;;;;;;8.87;5.63;;;;;;;6.74;75.83;95934.09;5028785;28;20475;-76
2022/04/20 06:38:00;;;;;;;10.73;6.13;;;;;;;6.68;77.56;95939.91;5039295;28;20459;-78
2022/04/20 06:40:52;;;;;;;8.80;5.20;;;;;;;7.00;73.79;95939.50;5044937;28;20829;-77
2022/04/20 06:43:41;;;;;;;7.80;5.30;;;;;;;7.16;73.42;95938.88;5030011;28;20036;-78
2022/04/20 06:46:26;;;;;;;13.13;5.77;;;;;;;7.05;73.25;95933.84;5017007;28;20888;-77
2022/04/20 06:49:01;;;;;;;8.30;5.33;;;;;;;7.40;71.40;95927.88;5042765;28;20045;-78
2022/04/20 07:00:20;;;;;;;8.87;4.43;;;;;;;8.13;64.81;95922.50;5033080;28;20036;-77
2022/04/20 07:03:03;;;;;;;9.33;6.00;;;;;;;8.48;64.42;95919.03;5054338;28;20040;-78
2022/04/20 07:05:47;;;;;;;7.23;4.50;;;;;;;8.36;62.21;95922.84;5042560;28;20152;-78
2022/04/20 07:08:33;;;;;;;7.87;4.43;;;;;;;8.29;62.12;95913.13;5048741;28;20512;-78
2022/04/20 07:11:12;;;;;;;8.07;5.63;;;;;;;9.02;59.52;95907.50;5027167;28;20393;-77
2022/04/20 07:13:40;;;;;;;7.07;4.30;;;;;;;9.20;57.62;95916.94;5027141;28;20029;-77
2022/04/20 07:16:07;;;;;;;7.30;4.83;;;;;;;8.59;59.46;95922.38;5021139;28;20067;-77
2022/04/20 07:18:35;;;;;;;6.83;4.00;;;;;;;7.98;61.64;95929.22;5022309;28;20025;-77
2022/04/20 07:21:20;;;;;;;6.60;4.00;;;;;;;8.95;58.84;95923.03;5028419;28;20064;-77
2022/04/20 07:23:59;;;;;;;8.07;4.40;;;;;;;9.08;58.78;95912.94;5013179;28;20107;-77
2022/04/20 07:26:57;;;;;;;8.73;4.70;;;;;;;9.15;55.47;95921.84;5009547;28;20077;-77
2022/04/20 07:29:27;;;;;;;5.90;3.70;;;;;;;9.76;54.75;95914.63;5017028;28;20560;-79
2022/04/20 07:32:01;;;;;;;7.73;3.70;;;;;;;9.11;55.39;95919.69;5047772;28;20402;-77
2022/04/20 07:34:45;;;;;;;8.63;4.33;;;;;;;9.27;54.85;95917.13;5042949;28;20033;-78
2022/04/20 07:37:31;;;;;;;6.10;3.87;;;;;;;9.50;53.75;95906.84;5040991;28;20102;-78
2022/04/20 07:40:10;;;;;;;5.77;3.70;;;;;;;9.40;52.53;95919.31;5031094;28;20040;-78
2022/04/20 07:42:55;;;;;;;9.80;6.10;;;;;;;9.71;52.82;95916.91;5031373;28;20043;-76
2022/04/20 07:45:39;;;;;;;5.47;3.70;;;;;;;10.00;50.19;95913.81;5034658;28;20126;-77
2022/04/20 07:48:21;;;;;;;9.17;3.93;;;;;;;9.29;51.89;95914.31;5035499;28;20036;-77
2022/04/20 07:50:56;;;;;;;6.30;3.17;;;;;;;9.55;50.01;95927.38;5020364;28;20037;-79
2022/04/20 07:53:51;;;;;;;5.07;3.00;;;;;;;9.99;48.33;95924.47;4964196;28;20035;-77
2022/04/20 07:56:20;;;;;;;5.23;2.70;;;;;;;10.05;47.80;95911.50;5016743;28;20067;-77
2022/04/20 07:59:11;;;;;;;5.40;2.80;;;;;;;9.55;48.15;95925.56;5027245;28;20084;-75
2022/04/20 08:02:00;;;;;;;6.07;3.10;;;;;;;9.23;49.29;95935.97;5015398;28;20037;-76
2022/04/20 08:04:49;;;;;;;5.67;2.70;;;;;;;9.90;48.51;95936.81;5022277;28;20072;-76
2022/04/20 08:07:19;;;;;;;5.50;3.10;;;;;;;9.59;48.53;95931.31;5029265;28;20387;-76
2022/04/20 08:09:46;;;;;;;5.30;3.00;;;;;;;9.19;49.43;95952.03;5010435;28;20028;-77
2022/04/20 08:12:12;;;;;;;5.47;3.20;;;;;;;9.49;49.04;95944.59;5030554;28;20063;-76
2022/04/20 08:14:38;;;;;;;11.13;4.13;;;;;;;10.42;47.30;95933.06;5010843;28;20021;-76
2022/04/20 08:17:18;;;;;;;6.57;3.27;;;;;;;10.62;46.38;95934.34;5006562;28;20036;-76
2022/04/20 08:20:07;;;;;;;7.47;3.77;;;;;;;10.29;47.88;95939.63;4996959;28;20433;-76
2022/04/20 08:22:51;;;;;;;6.00;3.40;;;;;;;10.91;46.69;95927.72;5016102;28;20024;-76
2022/04/20 08:25:18;;;;;;;5.63;3.73;;;;;;;11.35;46.50;95922.78;5021693;28;20045;-77
2022/04/20 08:27:44;;;;;;;6.33;3.20;;;;;;;11.68;43.82;95927.91;5041054;28;20029;-76
2022/04/20 08:30:13;;;;;;;8.37;3.33;;;;;;;12.16;42.26;95924.13;5016990;28;20095;-77
2022/04/20 08:32:39;;;;;;;5.43;3.37;;;;;;;12.06;42.87;95917.47;5035278;28;20112;-76
2022/04/20 08:35:05;;;;;;;5.40;2.90;;;;;;;10.81;45.16;95922.66;5017588;28;20222;-76
2022/04/20 08:37:31;;;;;;;6.97;3.53;;;;;;;11.76;44.69;95918.13;5022816;28;20112;-76
2022/04/20 08:39:57;;;;;;;5.77;3.90;;;;;;;11.81;44.15;95920.25;5009141;28;20243;-78
2022/04/20 08:42:24;;;;;;;5.77;3.63;;;;;;;11.29;45.57;95926.09;5022833;28;20036;-76
2022/04/20 08:44:51;;;;;;;6.70;3.50;;;;;;;10.66;45.79;95925.13;5038688;28;20036;-77
2022/04/20 08:47:20;;;;;;;7.10;3.50;;;;;;;10.89;45.20;95927.88;5018545;28;20536;-78
2022/04/20 08:49:49;;;;;;;5.70;3.67;;;;;;;11.30;45.70;95925.09;5021492;28;20029;-77
2022/04/20 08:55:10;;;;;;;5.53;3.30;;;;;;;10.88;45.93;95923.63;5020822;28;20098;-76
2022/04/20 08:57:37;;;;;;;5.85;3.50;;;;;;;11.48;44.61;95919.63;5011003;28;20033;-76
2022/04/20 09:00:05;;;;;;;5.83;4.00;;;;;;;11.47;43.87;95926.69;5021265;28;20033;-77
2022/04/20 09:02:31;;;;;;;7.17;3.73;;;;;;;10.87;45.24;95922.00;5039062;28;20045;-77
2022/04/20 09:04:57;;;;;;;6.27;3.93;;;;;;;11.04;44.47;95928.84;5006753;28;20071;-78
2022/04/20 09:07:25;;;;;;;5.53;3.50;;;;;;;10.39;44.38;95931.59;5030981;28;20442;-77
2022/04/20 09:09:51;;;;;;;5.47;3.50;;;;;;;11.73;43.52;95922.91;5040814;28;20119;-78
2022/04/20 09:12:25;;;;;;;7.97;3.50;;;;;;;12.20;43.22;95921.97;5008096;28;20061;-78
2022/04/20 09:14:52;;;;;;;4.87;2.90;;;;;;;10.93;43.51;95923.94;5043908;28;20086;-79
2022/04/20 09:17:20;;;;;;;8.70;3.20;;;;;;;12.01;42.67;95918.81;5026020;28;20559;-78
2022/04/20 09:19:51;;;;;;;6.00;3.53;;;;;;;12.57;41.80;95907.16;5025622;28;20134;-77
2022/04/20 09:22:26;;;;;;;7.20;3.60;;;;;;;12.92;42.36;95922.31;5011932;28;20033;-79
2022/04/20 09:25:06;;;;;;;6.47;3.13;;;;;;;13.05;40.30;95907.66;5047410;28;20116;-77
2022/04/20 09:27:37;;;;;;;6.20;3.03;;;;;;;13.17;39.61;95911.47;5049894;28;20041;-77
2022/04/20 09:30:09;;;;;;;5.70;2.83;;;;;;;12.25;40.73;95912.53;5032654;28;20029;-77
2022/04/20 09:32:43;;;;;;;4.37;2.70;;;;;;;11.09;41.24;95931.75;5031120;28;20036;-77
2022/04/20 09:35:13;;;;;;;5.43;2.60;;;;;;;12.32;40.04;95911.84;5029778;28;20048;-78
2022/04/20 09:37:41;;;;;;;8.93;2.90;;;;;;;13.39;39.69;95901.81;5047701;28;20442;-78
2022/04/20 09:40:32;;;;;;;6.20;2.83;;;;;;;14.55;36.74;95889.34;5027565;28;20517;-78
2022/04/20 09:43:03;;;;;;;;;;;;;;;13.73;35.03;95903.03;5017583;28;20055;-77
2022/04/20 09:45:29;;;;;;;4.53;2.70;;;;;;;12.32;37.00;95910.00;5050084;28;20007;-77
2022/04/20 09:50:42;;;;;;;7.00;3.67;;;;;;;13.76;35.16;95882.31;5029266;28;20032;-78
2022/04/20 09:53:12;;;;;;;8.17;3.70;;;;;;;13.96;35.77;95879.88;5029405;28;20129;-77
2022/04/20 09:55:40;;;;;;;4.63;2.70;;;;;;;13.58;35.58;95887.19;5033161;28;20059;-78
2022/04/20 09:58:18;;;;;;;6.77;2.60;;;;;;;14.73;35.08;95875.66;5025300;28;20402;-78
2022/04/20 10:00:51;;;;;;;4.40;2.80;;;;;;;13.81;35.32;95895.78;5035609;28;20029;-79
2022/04/20 10:03:28;;;;;;;6.73;3.10;;;;;;;13.66;35.79;95876.53;5029233;28;20202;-78
2022/04/20 10:05:55;;;;;;;6.80;2.77;;;;;;;14.69;34.00;95869.94;5053512;28;20524;-78
2022/04/20 10:08:21;;;;;;;4.07;2.67;;;;;;;14.00;34.98;95875.03;5057754;28;20049;-79
2022/04/20 10:10:48;;;;;;;3.60;2.30;;;;;;;14.09;35.31;95879.19;5038309;28;20124;-78
2022/04/20 10:13:15;;;;;;;4.90;2.90;;;;;;;13.05;34.74;95868.06;5037987;28;20029;-78
2022/04/20 10:18:29;;;;;;;4.20;2.50;;;;;;;14.12;33.31;95857.66;5055016;28;20060;-76
2022/04/20 10:20:57;;;;;;;6.03;2.80;;;;;;;13.04;34.12;95869.03;5055774;28;20039;-78
2022/04/20 10:23:24;;;;;;;5.60;3.03;;;;;;;13.62;33.81;95862.06;5021234;28;20032;-78
2022/04/20 10:25:51;;;;;;;6.57;2.90;;;;;;;13.79;32.87;95860.00;5037775;28;20041;-77
2022/04/20 10:28:42;;;;;;;3.83;2.03;;;;;;;12.09;34.56;95874.94;5029426;28;20044;-78
2022/04/20 10:31:38;;;;;;;3.67;2.20;;;;;;;13.26;34.12;95856.78;5029819;28;20053;-78
2022/04/20 10:34:05;;;;;;;4.37;2.30;;;;;;;14.14;32.53;95847.69;5040179;28;20091;-80
2022/04/20 10:36:58;;;;;;;3.53;2.23;;;;;;;12.36;34.25;95865.66;5046705;28;20037;-79
2022/04/20 10:39:26;;;;;;;3.70;2.10;;;;;;;13.10;33.29;95852.47;5027224;28;20060;-78
2022/04/20 10:42:11;;;;;;;7.37;2.20;;;;;;;12.47;36.14;95855.50;5013455;28;20029;-78
2022/04/20 10:44:55;;;;;;;4.00;2.27;;;;;;;14.14;32.86;95855.63;5041159;28;20033;-77
2022/04/20 10:47:24;;;;;;;4.03;2.37;;;;;;;14.76;33.06;95841.66;5022604;28;20093;-78
2022/04/20 10:50:09;;;;;;;3.97;2.40;;;;;;;14.47;32.15;95845.31;5022592;28;20025;-79
2022/04/20 10:52:37;;;;;;;4.50;2.70;;;;;;;15.19;32.33;95841.47;5039195;28;20044;-79
2022/04/20 10:55:04;;;;;;;5.17;2.70;;;;;;;15.07;32.54;95829.81;5025383;28;20021;-79
2022/04/20 10:57:36;;;;;;;4.53;2.53;;;;;;;15.65;32.04;95824.06;5041512;28;20040;-81
2022/04/20 11:00:35;;;;;;;7.87;5.00;;;;;;;15.79;32.90;95816.00;5048521;28;20025;-79
2022/04/20 11:03:03;;;;;;;7.17;4.30;;;;;;;16.37;31.97;95818.03;5046376;28;20037;-79
2022/04/20 11:05:29;;;;;;;5.57;2.70;;;;;;;16.05;31.12;95813.56;5022360;28;20112;-79
2022/04/20 11:08:03;;;;;;;5.37;2.70;;;;;;;15.26;32.42;95807.88;5052440;28;20041;-80
2022/04/20 11:10:30;;;;;;;4.93;2.17;;;;;;;13.90;32.49;95818.00;5046302;28;20033;-79
2022/04/20 11:19:10;;;;;;;6.77;2.60;;;;;;;15.20;28.79;95813.97;5022015;28;20037;-79
2022/04/20 11:21:53;;;;;;;3.93;2.60;;;;;;;15.57;31.01;95803.88;5021094;28;20040;-78
2022/04/20 11:24:27;;;;;;;8.20;2.77;;;;;;;15.58;31.30;95816.09;5042500;28;20121;-78
2022/04/20 11:26:54;;;;;;;5.80;3.00;;;;;;;13.63;33.49;95821.41;5019849;28;20111;-78
2022/04/20 11:29:24;;;;;;;4.27;2.80;;;;;;;12.92;34.75;95824.66;5025514;28;20026;-78
2022/04/20 11:31:54;;;;;;;4.07;2.57;;;;;;;14.90;31.26;95802.03;5027149;28;20029;-78
2022/04/20 11:34:20;;;;;;;4.40;2.47;;;;;;;15.81;30.51;95799.06;5028812;28;20442;-79
2022/04/20 11:36:53;;;;;;;4.57;2.57;;;;;;;16.34;30.07;95785.81;5009525;28;20034;-80
2022/04/20 11:39:21;;;;;;;6.25;3.10;;;;;;;16.62;30.47;95780.22;5043163;28;20029;-79
2022/04/20 11:41:58;;;;;;;5.63;2.50;;;;;;;16.15;30.56;95782.94;5049580;28;20040;-78
2022/04/20 11:44:39;;;;;;;5.10;2.23;;;;;;;15.93;31.51;95771.75;5038316;28;20048;-79
2022/04/20 11:47:11;;;;;;;6.70;4.30;;;;;;;15.02;32.56;95779.25;5010950;28;20029;-79
2022/04/20 11:49:41;;;;;;;9.50;2.77;;;;;;;15.58;31.67;95784.31;5039638;28;20033;-79
2022/04/20 11:52:11;;;;;;;3.63;2.20;;;;;;;16.40;30.14;95777.81;5040086;28;20116;-79
2022/04/20 11:54:40;;;;;;;8.07;2.50;;;;;;;17.07;28.79;95767.88;5032069;28;20471;-79
2022/04/20 11:57:26;;;;;;;3.07;2.20;;;;;;;15.88;29.44;95773.38;5042910;28;20057;-79
2022/04/20 11:59:51;;;;;;;5.47;2.73;;;;;;;14.82;31.07;95784.47;5011211;28;20144;-79
2022/04/20 12:02:19;;;;;;;4.50;2.53;;;;;;;15.32;31.15;95777.94;5015972;28;20052;-79
2022/04/20 12:05:05;;;;;;;5.43;2.50;;;;;;;15.59;29.59;95772.69;5036427;28;20032;-79
2022/04/20 12:07:32;;;;;;;6.73;3.10;;;;;;;15.83;29.42;95759.88;5033525;28;20116;-78
2022/04/20 12:09:58;;;;;;;7.70;2.70;;;;;;;15.73;30.47;95770.91;5043835;28;20542;-79
2022/04/20 12:12:24;;;;;;;5.17;2.47;;;;;;;16.58;31.18;95761.25;5022082;28;20124;-79
2022/04/20 12:14:49;;;;;;;6.03;3.00;;;;;;;16.30;29.64;95773.94;5028095;28;20040;-79
2022/04/20 12:17:20;;;;;;;5.17;2.67;;;;;;;15.82;29.28;95763.56;5026200;28;20040;-79
2022/04/20 12:19:48;;;;;;;4.30;2.72;;;;;;;14.74;31.30;95766.91;5010307;28;20054;-79
2022/04/20 12:22:17;;;;;;;5.07;2.93;;;;;;;15.75;30.26;95763.56;5048852;28;20031;-79
2022/04/20 12:24:43;;;;;;;7.33;3.20;;;;;;;15.65;30.21;95768.41;5010835;28;20096;-79
2022/04/20 12:27:21;;;;;;;5.17;3.00;;;;;;;15.66;30.91;95752.34;5026817;28;20067;-79
2022/04/20 12:29:57;;;;;;;5.50;2.70;;;;;;;16.65;30.48;95747.94;5031958;28;20500;-79
2022/04/20 12:32:31;;;;;;;3.90;2.37;;;;;;;16.61;30.00;95744.09;5031371;28;20044;-79
2022/04/20 12:35:04;;;;;;;4.73;2.87;;;;;;;16.56;31.37;95750.00;5025179;28;20048;-79
2022/04/20 12:37:54;;;;;;;5.35;3.03;;;;;;;15.50;32.28;95739.47;5015518;28;20033;-79